NCAR-RAP Real-Time Weather Data

Output produced by METARs form (14 October 2019  23:27 UTC)
found at http://weather.rap.ucar.edu/surface/
 
KABQ 142252Z 26006G16KT 10SM SCT110 23/M03 A3000 RMK AO2 SLP100 T02331028
KABQ 142152Z VRB06KT 10SM SCT100 24/M02 A3001 RMK AO2 SLP100 T02391022
KABQ 142052Z 27006KT 10SM SCT120 23/M02 A3002 RMK AO2 SLP105 T02281022 58025
KABQ 141952Z 00000KT 10SM SCT120 22/M02 A3006 RMK AO2 SLP116 T02171017
KABQ 141852Z VRB04KT 10SM FEW120 21/M02 A3008 RMK AO2 SLP126 T02111017
KABQ 141752Z 23003KT 10SM FEW120 20/00 A3011 RMK AO2 SLP136 T02000000 10200 20083 58008
KABQ 141652Z 23003KT 10SM CLR 17/01 A3013 RMK AO2 SLP147 T01670011
KABQ 141552Z 28004KT 10SM CLR 15/01 A3014 RMK AO2 SLP155 T01500006
KABQ 141452Z 14003KT 10SM CLR 13/02 A3014 RMK AO2 SLP156 T01280017 51012
KABQ 141352Z 00000KT 10SM CLR 10/01 A3013 RMK AO2 SLP153 T01000011
KABQ 141252Z 00000KT 10SM CLR 09/01 A3012 RMK AO2 SLP149 T00890006
KABQ 141152Z 12006KT 10SM CLR 08/01 A3010 RMK AO2 SLP139 T00830006 10156 20083 53006
KABQ 141052Z 12006KT 10SM CLR 08/01 A3008 RMK AO2 SLP132 T00830006
KABQ 140952Z 11004KT 10SM CLR 10/01 A3008 RMK AO2 SLP128 T01000006
KABQ 140852Z 14005KT 10SM CLR 11/00 A3007 RMK AO2 SLP125 T01110000 53000
KABQ 140752Z 13004KT 10SM CLR 13/M01 A3007 RMK AO2 SLP123 T01281006
KABQ 140652Z 10006KT 10SM CLR 13/M01 A3007 RMK AO2 SLP125 T01281011 402280061
KABQ 140552Z 00000KT 10SM CLR 14/M03 A3007 RMK AO2 SLP129 T01391033 10217 20122 51005
KABQ 140452Z 12003KT 10SM CLR 15/M03 A3007 RMK AO2 SLP129 T01501033
KABQ 140352Z 10006KT 10SM FEW250 14/M03 A3007 RMK AO2 SLP135 T01441028
KABQ 140252Z 09008KT 10SM FEW250 16/M03 A3006 RMK AO2 SLP129 T01611033 51004
KABQ 140152Z 10006KT 10SM FEW250 17/M04 A3006 RMK AO2 SLP134 T01721044
KABQ 140052Z 14005KT 10SM FEW250 19/M04 A3005 RMK AO2 SLP125 T01941039
KABQ 132352Z 19007KT 10SM FEW250 22/M04 A3004 RMK AO2 SLP120 T02171044 10228 20167 56007
KABQ 132252Z 22005KT 10SM FEW250 22/M04 A3005 RMK AO2 SLP122 T02221039
KABQ 132152Z VRB03KT 10SM FEW250 22/M03 A3006 RMK AO2 SLP122 T02221033
KABQ 132052Z 20006KT 10SM FEW250 22/M03 A3007 RMK AO2 SLP129 T02171033 58025
KABQ 131952Z 00000KT 10SM FEW250 21/M03 A3010 RMK AO2 SLP139 T02061028
KABQ 131852Z 00000KT 10SM FEW250 19/M03 A3013 RMK AO2 SLP149 T01941028
KABQ 131752Z 00000KT 10SM CLR 17/M02 A3015 RMK AO2 SLP161 T01721017 10172 20061 50001
KABQ 131652Z VRB05KT 10SM CLR 14/M01 A3017 RMK AO2 SLP171 T01441011
KABQ 131552Z 28003KT 10SM CLR 12/01 A3017 RMK AO2 SLP174 T01170006
KABQ 131452Z 00000KT 10SM CLR 12/01 A3015 RMK AO2 SLP166 T01170006 53014
KABQ 131352Z 00000KT 10SM CLR 08/01 A3013 RMK AO2 SLP160 T00780006
KABQ 131252Z 00000KT 10SM CLR 08/00 A3011 RMK AO2 SLP154 T00780000
KABQ 131152Z 14003KT 10SM CLR 08/01 A3010 RMK AO2 SLP146 T00830006 10122 20072 53003
KABQ 131052Z 12004KT 10SM CLR 08/01 A3009 RMK AO2 SLP142 T00780006
KABQ 130952Z 14006KT 10SM CLR 08/01 A3009 RMK AO2 SLP144 T00830006
KABQ 130852Z 13006KT 10SM CLR 08/01 A3009 RMK AO2 SLP142 T00830006 53007
KABQ 130752Z 12006KT 10SM CLR 09/01 A3008 RMK AO2 SLP141 T00890006
KABQ 130652Z 11005KT 10SM CLR 11/01 A3007 RMK AO2 SLP140 T01060006 401940022
KABQ 130552Z 02006KT 10SM CLR 12/01 A3006 RMK AO2 SLP138 T01170006 10189 20111 53008
KABQ 130452Z 11005KT 10SM CLR 12/M01 A3005 RMK AO2 SLP136 T01221006
KABQ 130352Z 12004KT 10SM CLR 13/M01 A3004 RMK AO2 SLP137 T01281006
KABQ 130252Z 11005KT 10SM CLR 13/M01 A3003 RMK AO2 SLP139 T01331011 50000
KABQ 130152Z 10004KT 10SM CLR 17/M02 A3004 RMK AO2 SLP137 T01721017
KABQ 130052Z 03003KT 10SM FEW090 17/M02 A3004 RMK AO2 SLP137 T01721017
KABQ 122352Z 31005KT 10SM SCT090 18/M02 A3004 RMK AO2 SLP134 T01831017 10194 20122 55008